F/V Mab Fanch — FPDH — position and weather

sailwx.info

Track history (hours):
 
Tides and Currents Weather Stations Pressure Air Temp Water Temp Dewpoint Dewpoint Depression Visibility Wind Speed Wind Dir Waves Ship Positions

F/V Mab Fanch

Last reported at 2018-Feb-23 16:14 UTC. Time now 2018-Feb-26 03:55 UTC.
Position N 47°47' W 004°18'.

Length 15 m.

Type: Fishing. MMSI: 228219000.

Date/timePositionNaut miles runAvg speedWind from/ knotsBaromVisibWave heightAir tempDewpointWater temp
2018-Feb-23 16:14N 47°47' W 004°18'2 8.1
2018-Feb-23 16:00N 47°45' W 004°18'4 6.9
2018-Feb-23 15:27N 47°41' W 004°18'1 2.5
2018-Feb-23 14:59N 47°40' W 004°17'2 1.5
2018-Feb-23 13:53N 47°39' W 004°17'1 2.8
2018-Feb-23 13:29N 47°39' W 004°19'3 1.8
2018-Feb-23 11:48N 47°39' W 004°15'2 3.3
2018-Feb-23 11:20N 47°38' W 004°13'3 1.3
2018-Feb-23 09:08N 47°36' W 004°16'0 3.0
2018-Feb-23 08:59N 47°36' W 004°17'2 3.0
2018-Feb-23 08:29N 47°37' W 004°19'2 3.0
2018-Feb-23 07:58N 47°38' W 004°21'1 3.0
2018-Feb-23 07:30N 47°38' W 004°23'1 2.9
2018-Feb-23 07:00N 47°39' W 004°25'2 3.0
2018-Feb-23 06:28N 47°41' W 004°25'2 3.6
2018-Feb-23 05:57N 47°42' W 004°23'3 7.8
2018-Feb-23 05:31N 47°45' W 004°21'2 0.2
2018-Feb-22 16:05N 47°47' W 004°18'1 8.2
2018-Feb-22 15:59N 47°46' W 004°19'4 7.7
2018-Feb-22 15:31N 47°43' W 004°22'1 2.5
2018-Feb-22 15:00N 47°42' W 004°22'2 2.8
2018-Feb-22 14:24N 47°40' W 004°22'1 3.0
2018-Feb-22 13:57N 47°40' W 004°24'2 3.0
2018-Feb-22 13:26N 47°40' W 004°26'3 2.0
2018-Feb-22 11:46N 47°39' W 004°21'1 3.3
2018-Feb-22 11:27N 47°39' W 004°19'3 3.3
2018-Feb-22 10:24N 47°38' W 004°15'1 1.9
2018-Feb-22 09:51N 47°38' W 004°13'2 3.0
2018-Feb-22 09:19N 47°38' W 004°15'1 3.0
2018-Feb-22 08:59N 47°38' W 004°17'2 3.0
2018-Feb-22 08:25N 47°39' W 004°19'1 3.1
2018-Feb-22 08:00N 47°39' W 004°21'2 3.1
2018-Feb-22 07:30N 47°40' W 004°23'1 2.8
2018-Feb-22 07:00N 47°41' W 004°24'2 3.2
2018-Feb-22 06:30N 47°42' W 004°22'2 3.7
2018-Feb-22 05:59N 47°44' W 004°20'4 7.7
2018-Feb-22 05:30N 47°47' W 004°18'0 0.0
2018-Feb-21 16:13N 47°47' W 004°18'2 7.6
2018-Feb-21 16:00N 47°45' W 004°18'4 7.9
2018-Feb-21 15:28N 47°41' W 004°17'2 3.1
2018-Feb-21 14:54N 47°40' W 004°15'1 2.6
2018-Feb-21 14:19N 47°38' W 004°16'1 2.9
2018-Feb-21 14:00N 47°38' W 004°18'1 2.9
2018-Feb-21 13:30N 47°38' W 004°20'3 0.6
2018-Feb-21 08:02N 47°39' W 004°15'2 3.2
2018-Feb-21 07:22N 47°40' W 004°17'1 3.4
2018-Feb-21 06:56N 47°41' W 004°18'2 3.5
2018-Feb-21 06:29N 47°43' W 004°20'2 3.6
2018-Feb-21 06:00N 47°44' W 004°22'4 7.8
2018-Feb-21 05:28N 47°47' W 004°18'0 0.0
2018-Feb-20 16:14N 47°47' W 004°17'2 8.9
2018-Feb-20 15:58N 47°45' W 004°18'4 7.4
2018-Feb-20 15:27N 47°41' W 004°19'2 2.9
2018-Feb-20 14:39N 47°39' W 004°20'1 3.2
2018-Feb-20 14:25N 47°38' W 004°20'1 3.2
2018-Feb-20 13:58N 47°37' W 004°20'3 2.6
2018-Feb-20 12:46N 47°35' W 004°16'5 0.8
2018-Feb-20 06:38N 47°40' W 004°16'1 3.5
2018-Feb-20 06:23N 47°41' W 004°17'2 4.3
2018-Feb-20 05:59N 47°42' W 004°17'4 8.1
2018-Feb-20 05:30N 47°46' W 004°17'1 0.1
2018-Feb-19 16:18N 47°47' W 004°17'3 8.1
2018-Feb-19 15:58N 47°45' W 004°17'4 7.9
2018-Feb-19 15:28N 47°41' W 004°18'3 3.9
2018-Feb-19 14:47N 47°38' W 004°18'1 3.4
2018-Feb-19 14:30N 47°37' W 004°19'1 2.9
2018-Feb-19 14:00N 47°36' W 004°18'3 2.4
2018-Feb-19 12:47N 47°36' W 004°14'1 3.1
2018-Feb-19 12:21N 47°37' W 004°16'1 3.1
2018-Feb-19 11:55N 47°37' W 004°18'1 2.7
2018-Feb-19 11:26N 47°36' W 004°18'3 0.8
2018-Feb-19 07:30N 47°38' W 004°21'2 3.2
2018-Feb-19 06:53N 47°39' W 004°24'1 3.4
2018-Feb-19 06:31N 47°40' W 004°23'2 4.4
2018-Feb-19 05:58N 47°43' W 004°23'4 7.7
2018-Feb-19 05:27N 47°46' W 004°19'2 0.2
2018-Feb-18 18:25N 47°47' W 004°17'4 8.8
2018-Feb-18 17:58N 47°45' W 004°22'7 7.1
2018-Feb-18 17:01N 47°41' W 004°30'1 2.6
2018-Feb-18 16:42N 47°40' W 004°31'6 2.6
2018-Feb-18 14:30N 47°39' W 004°22'2 2.6
2018-Feb-18 13:42N 47°39' W 004°25'1 3.0
2018-Feb-18 13:26N 47°40' W 004°26'1 3.1
2018-Feb-18 13:00N 47°39' W 004°28'2 3.1
2018-Feb-18 12:26N 47°40' W 004°31'1 3.0
2018-Feb-18 12:00N 47°40' W 004°33'3 3.0
2018-Feb-18 11:04N 47°40' W 004°37'1 3.1
2018-Feb-18 10:51N 47°40' W 004°38'1 2.5
2018-Feb-18 10:29N 47°40' W 004°39'11 2.8
2018-Feb-18 06:39N 47°41' W 004°23'1 3.6
2018-Feb-18 06:30N 47°41' W 004°23'3 5.7
2018-Feb-18 06:00N 47°43' W 004°20'4 7.6
2018-Feb-18 05:30N 47°47' W 004°18'1 0.0
2018-Feb-16 16:26N 47°48' W 004°17'2 5.4
2018-Feb-16 16:00N 47°45' W 004°17'4 8.0
2018-Feb-16 15:28N 47°41' W 004°17'2 3.4
2018-Feb-16 14:53N 47°39' W 004°17'2 3.4
2018-Feb-16 14:27N 47°38' W 004°16'2 3.5
2018-Feb-16 13:52N 47°36' W 004°16'3 3.7
2018-Feb-16 13:07N 47°33' W 004°16'2 2.1
2018-Feb-16 12:00N 47°35' W 004°16'4 1.7
2018-Feb-16 09:44N 47°33' W 004°11'3 2.7
2018-Feb-16 08:29N 47°34' W 004°15'2 2.9
2018-Feb-16 07:55N 47°36' W 004°16'1 3.1
2018-Feb-16 07:28N 47°37' W 004°16'1 3.1
2018-Feb-16 07:00N 47°39' W 004°17'2 3.2
2018-Feb-16 06:30N 47°40' W 004°17'2 3.7
2018-Feb-16 05:59N 47°42' W 004°17'4 8.3
2018-Feb-16 05:30N 47°46' W 004°18'1 0.1
2018-Feb-15 16:30N 47°47' W 004°17'4 8.6
2018-Feb-15 16:00N 47°43' W 004°18'1 2.0
2018-Feb-15 15:22N 47°44' W 004°17'  
Track history (hours):
 
Tides and Currents Weather Stations Pressure Air Temp Water Temp Dewpoint Dewpoint Depression Visibility Wind Speed Wind Dir Waves Ship Positions

F/V Mab Fanch

Last reported at 2018-Feb-23 16:14 UTC. Time now 2018-Feb-26 03:55 UTC.
Position N 47°47' W 004°18'.

Length 15 m.

Type: Fishing. MMSI: 228219000.

Date/timePositionNaut miles runAvg speedWind from/ knotsBaromVisibWave heightAir tempDewpointWater temp
2018-Feb-23 16:14N 47°47' W 004°18'2 8.1
2018-Feb-23 16:00N 47°45' W 004°18'4 6.9
2018-Feb-23 15:27N 47°41' W 004°18'1 2.5
2018-Feb-23 14:59N 47°40' W 004°17'2 1.5
2018-Feb-23 13:53N 47°39' W 004°17'1 2.8
2018-Feb-23 13:29N 47°39' W 004°19'3 1.8
2018-Feb-23 11:48N 47°39' W 004°15'2 3.3
2018-Feb-23 11:20N 47°38' W 004°13'3 1.3
2018-Feb-23 09:08N 47°36' W 004°16'0 3.0
2018-Feb-23 08:59N 47°36' W 004°17'2 3.0
2018-Feb-23 08:29N 47°37' W 004°19'2 3.0
2018-Feb-23 07:58N 47°38' W 004°21'1 3.0
2018-Feb-23 07:30N 47°38' W 004°23'1 2.9
2018-Feb-23 07:00N 47°39' W 004°25'2 3.0
2018-Feb-23 06:28N 47°41' W 004°25'2 3.6
2018-Feb-23 05:57N 47°42' W 004°23'3 7.8
2018-Feb-23 05:31N 47°45' W 004°21'2 0.2
2018-Feb-22 16:05N 47°47' W 004°18'1 8.2
2018-Feb-22 15:59N 47°46' W 004°19'4 7.7
2018-Feb-22 15:31N 47°43' W 004°22'1 2.5
2018-Feb-22 15:00N 47°42' W 004°22'2 2.8
2018-Feb-22 14:24N 47°40' W 004°22'1 3.0
2018-Feb-22 13:57N 47°40' W 004°24'2 3.0
2018-Feb-22 13:26N 47°40' W 004°26'3 2.0
2018-Feb-22 11:46N 47°39' W 004°21'1 3.3
2018-Feb-22 11:27N 47°39' W 004°19'3 3.3
2018-Feb-22 10:24N 47°38' W 004°15'1 1.9
2018-Feb-22 09:51N 47°38' W 004°13'2 3.0
2018-Feb-22 09:19N 47°38' W 004°15'1 3.0
2018-Feb-22 08:59N 47°38' W 004°17'2 3.0
2018-Feb-22 08:25N 47°39' W 004°19'1 3.1
2018-Feb-22 08:00N 47°39' W 004°21'2 3.1
2018-Feb-22 07:30N 47°40' W 004°23'1 2.8
2018-Feb-22 07:00N 47°41' W 004°24'2 3.2
2018-Feb-22 06:30N 47°42' W 004°22'2 3.7
2018-Feb-22 05:59N 47°44' W 004°20'4 7.7
2018-Feb-22 05:30N 47°47' W 004°18'0 0.0
2018-Feb-21 16:13N 47°47' W 004°18'2 7.6
2018-Feb-21 16:00N 47°45' W 004°18'4 7.9
2018-Feb-21 15:28N 47°41' W 004°17'2 3.1
2018-Feb-21 14:54N 47°40' W 004°15'1 2.6
2018-Feb-21 14:19N 47°38' W 004°16'1 2.9
2018-Feb-21 14:00N 47°38' W 004°18'1 2.9
2018-Feb-21 13:30N 47°38' W 004°20'3 0.6
2018-Feb-21 08:02N 47°39' W 004°15'2 3.2
2018-Feb-21 07:22N 47°40' W 004°17'1 3.4
2018-Feb-21 06:56N 47°41' W 004°18'2 3.5
2018-Feb-21 06:29N 47°43' W 004°20'2 3.6
2018-Feb-21 06:00N 47°44' W 004°22'4 7.8
2018-Feb-21 05:28N 47°47' W 004°18'0 0.0
2018-Feb-20 16:14N 47°47' W 004°17'2 8.9
2018-Feb-20 15:58N 47°45' W 004°18'4 7.4
2018-Feb-20 15:27N 47°41' W 004°19'2 2.9
2018-Feb-20 14:39N 47°39' W 004°20'1 3.2
2018-Feb-20 14:25N 47°38' W 004°20'1 3.2
2018-Feb-20 13:58N 47°37' W 004°20'3 2.6
2018-Feb-20 12:46N 47°35' W 004°16'5 0.8
2018-Feb-20 06:38N 47°40' W 004°16'1 3.5
2018-Feb-20 06:23N 47°41' W 004°17'2 4.3
2018-Feb-20 05:59N 47°42' W 004°17'4 8.1
2018-Feb-20 05:30N 47°46' W 004°17'1 0.1
2018-Feb-19 16:18N 47°47' W 004°17'3 8.1
2018-Feb-19 15:58N 47°45' W 004°17'4 7.9
2018-Feb-19 15:28N 47°41' W 004°18'3 3.9
2018-Feb-19 14:47N 47°38' W 004°18'1 3.4
2018-Feb-19 14:30N 47°37' W 004°19'1 2.9
2018-Feb-19 14:00N 47°36' W 004°18'3 2.4
2018-Feb-19 12:47N 47°36' W 004°14'1 3.1
2018-Feb-19 12:21N 47°37' W 004°16'1 3.1
2018-Feb-19 11:55N 47°37' W 004°18'1 2.7
2018-Feb-19 11:26N 47°36' W 004°18'3 0.8
2018-Feb-19 07:30N 47°38' W 004°21'2 3.2
2018-Feb-19 06:53N 47°39' W 004°24'1 3.4
2018-Feb-19 06:31N 47°40' W 004°23'2 4.4
2018-Feb-19 05:58N 47°43' W 004°23'4 7.7
2018-Feb-19 05:27N 47°46' W 004°19'2 0.2
2018-Feb-18 18:25N 47°47' W 004°17'4 8.8
2018-Feb-18 17:58N 47°45' W 004°22'7 7.1
2018-Feb-18 17:01N 47°41' W 004°30'1 2.6
2018-Feb-18 16:42N 47°40' W 004°31'6 2.6
2018-Feb-18 14:30N 47°39' W 004°22'2 2.6
2018-Feb-18 13:42N 47°39' W 004°25'1 3.0
2018-Feb-18 13:26N 47°40' W 004°26'1 3.1
2018-Feb-18 13:00N 47°39' W 004°28'2 3.1
2018-Feb-18 12:26N 47°40' W 004°31'1 3.0
2018-Feb-18 12:00N 47°40' W 004°33'3 3.0
2018-Feb-18 11:04N 47°40' W 004°37'1 3.1
2018-Feb-18 10:51N 47°40' W 004°38'1 2.5
2018-Feb-18 10:29N 47°40' W 004°39'11 2.8
2018-Feb-18 06:39N 47°41' W 004°23'1 3.6
2018-Feb-18 06:30N 47°41' W 004°23'3 5.7
2018-Feb-18 06:00N 47°43' W 004°20'4 7.6
2018-Feb-18 05:30N 47°47' W 004°18'1 0.0
2018-Feb-16 16:26N 47°48' W 004°17'2 5.4
2018-Feb-16 16:00N 47°45' W 004°17'4 8.0
2018-Feb-16 15:28N 47°41' W 004°17'2 3.4
2018-Feb-16 14:53N 47°39' W 004°17'2 3.4
2018-Feb-16 14:27N 47°38' W 004°16'2 3.5
2018-Feb-16 13:52N 47°36' W 004°16'3 3.7
2018-Feb-16 13:07N 47°33' W 004°16'2 2.1
2018-Feb-16 12:00N 47°35' W 004°16'4 1.7
2018-Feb-16 09:44N 47°33' W 004°11'3 2.7
2018-Feb-16 08:29N 47°34' W 004°15'2 2.9
2018-Feb-16 07:55N 47°36' W 004°16'1 3.1
2018-Feb-16 07:28N 47°37' W 004°16'1 3.1
2018-Feb-16 07:00N 47°39' W 004°17'2 3.2
2018-Feb-16 06:30N 47°40' W 004°17'2 3.7
2018-Feb-16 05:59N 47°42' W 004°17'4 8.3
2018-Feb-16 05:30N 47°46' W 004°18'1 0.1
2018-Feb-15 16:30N 47°47' W 004°17'4 8.6
2018-Feb-15 16:00N 47°43' W 004°18'1 2.0
2018-Feb-15 15:22N 47°44' W 004°17'  

Dump ship's entire track history